Time;durP1;ratioP1;P1;durP2;ratioP2;P2;SDS_P1;SDS_P2;PMS_P1;PMS_P2;Temp;Humidity;BMP_temperature;BMP_pressure;BME280_temperature;BME280_humidity;BME280_pressure;Samples;Min_cycle;Max_cycle;Signal;HPM_P1;HPM_P2
2022/01/15 00:01:38;;;;;;;166.32;86.03;;;-1.20;99.90;;;;;;4997451;28;20049;-81
2022/01/15 00:04:04;;;;;;;151.63;85.20;;;-1.30;99.90;;;;;;4998983;28;20030;-81
2022/01/15 00:06:30;;;;;;;150.05;84.28;;;-1.30;99.90;;;;;;4999955;28;20050;-81
2022/01/15 00:08:56;;;;;;;197.82;107.60;;;-1.30;99.90;;;;;;4998354;28;20069;-81
2022/01/15 00:11:21;;;;;;;216.27;108.40;;;-1.30;99.90;;;;;;4998187;28;20026;-81
2022/01/15 00:13:55;;;;;;;219.65;109.03;;;-1.40;99.90;;;;;;4998510;28;20399;-81
2022/01/15 00:16:45;;;;;;;231.48;110.13;;;-1.40;99.90;;;;;;5006638;28;20580;-81
2022/01/15 00:19:11;;;;;;;161.00;84.88;;;-1.40;99.90;;;;;;5012694;28;20165;-81
2022/01/15 00:21:37;;;;;;;167.73;88.72;;;-1.50;99.90;;;;;;4997310;28;20113;-81
2022/01/15 00:24:03;;;;;;;182.77;91.47;;;-1.40;99.90;;;;;;4997250;28;20499;-81
2022/01/15 00:26:29;;;;;;;164.48;86.65;;;-1.40;99.90;;;;;;4996849;28;20402;-81
2022/01/15 00:28:55;;;;;;;269.63;125.28;;;-1.40;99.90;;;;;;4997105;28;20039;-81
2022/01/15 00:31:20;;;;;;;216.05;102.30;;;-1.40;99.90;;;;;;4998070;28;20033;-81
2022/01/15 00:33:46;;;;;;;225.00;103.18;;;-1.40;99.90;;;;;;4998131;28;20026;-80
2022/01/15 00:36:12;;;;;;;145.15;73.03;;;-1.40;99.90;;;;;;5010378;28;20021;-81
2022/01/15 00:38:38;;;;;;;129.10;70.55;;;-1.40;99.90;;;;;;5016323;28;20018;-81
2022/01/15 00:41:04;;;;;;;136.45;74.10;;;-1.50;99.90;;;;;;5017815;28;20033;-81
2022/01/15 00:43:29;;;;;;;161.90;83.70;;;-1.50;99.90;;;;;;5017444;28;20405;-81
2022/01/15 00:45:58;;;;;;;164.15;85.10;;;-1.50;99.90;;;;;;5017664;28;20062;-81
2022/01/15 00:48:25;;;;;;;260.20;116.78;;;-1.50;99.90;;;;;;5017654;28;20060;-81
2022/01/15 00:50:51;;;;;;;352.27;143.32;;;-1.50;99.90;;;;;;5017495;28;20030;-80
2022/01/15 00:53:17;;;;;;;295.33;131.23;;;-1.50;99.90;;;;;;5017343;28;20026;-80
2022/01/15 00:55:42;;;;;;;351.83;144.00;;;-1.40;99.90;;;;;;5016334;28;20018;-81
2022/01/15 00:58:08;;;;;;;252.10;113.32;;;-1.50;99.90;;;;;;5017436;28;20101;-81
2022/01/15 01:00:35;;;;;;;279.55;126.63;;;-1.50;99.90;;;;;;4998866;28;20018;-81
2022/01/15 01:03:01;;;;;;;224.60;103.68;;;-1.50;99.90;;;;;;4997299;28;20034;-81
2022/01/15 01:05:26;;;;;;;268.92;121.22;;;-1.50;99.90;;;;;;4996487;28;20368;-81
2022/01/15 01:07:52;;;;;;;174.38;90.45;;;-1.50;99.90;;;;;;4996418;28;20109;-81
2022/01/15 01:23:29;;;;;;;234.50;110.03;;;-1.70;99.90;;;;;;4998696;28;20465;-81
2022/01/15 01:26:06;;;;;;;151.77;74.47;;;-1.70;99.90;;;;;;4997761;28;20034;-80
2022/01/15 01:28:37;;;;;;;149.95;80.15;;;-1.70;99.90;;;;;;4996247;28;20394;-80
2022/01/15 01:31:18;;;;;;;150.65;79.57;;;-1.70;99.90;;;;;;4997305;28;20072;-80
2022/01/15 01:33:48;;;;;;;;;;;-1.70;99.90;;;;;;4996725;28;20029;-81
2022/01/15 01:36:35;;;;;;;179.77;93.93;;;-1.70;99.90;;;;;;5009236;28;19905;-80
2022/01/15 01:39:06;;;;;;;179.30;89.43;;;-1.70;99.90;;;;;;4985922;28;20057;-80
2022/01/15 01:41:36;;;;;;;218.02;99.50;;;-1.70;99.90;;;;;;4997507;28;20054;-81
2022/01/15 01:44:04;;;;;;;144.02;75.78;;;-1.70;99.90;;;;;;4997770;28;20027;-80
2022/01/15 01:48:58;;;;;;;145.48;76.70;;;-1.70;99.90;;;;;;4997711;28;20026;-80
2022/01/15 01:51:30;;;;;;;128.82;68.80;;;-1.80;99.90;;;;;;4997149;28;20022;-80
2022/01/15 01:53:57;;;;;;;128.43;72.03;;;-1.80;99.90;;;;;;4996152;28;20034;-80
2022/01/15 01:56:23;;;;;;;214.57;100.47;;;-1.80;99.90;;;;;;4997091;28;20026;-80
2022/01/15 01:58:49;;;;;;;151.50;77.80;;;-1.80;99.90;;;;;;4997374;28;20144;-80
2022/01/15 02:01:15;;;;;;;136.57;75.28;;;-1.80;99.90;;;;;;4996961;28;20125;-80
2022/01/15 02:03:41;;;;;;;265.45;121.28;;;-1.80;99.90;;;;;;4997274;28;20046;-80
2022/01/15 02:06:07;;;;;;;140.25;74.13;;;-1.80;99.90;;;;;;4997159;28;20030;-80
2022/01/15 02:08:35;;;;;;;374.55;147.60;;;-1.90;99.90;;;;;;4997077;28;20026;-80
2022/01/15 02:11:05;;;;;;;162.38;79.18;;;-1.80;99.90;;;;;;4997025;28;20081;-80
2022/01/15 02:13:31;;;;;;;134.32;72.15;;;-1.80;99.90;;;;;;4997282;28;20026;-80
2022/01/15 02:15:59;;;;;;;139.45;72.82;;;-1.90;99.90;;;;;;4998873;28;20026;-79
2022/01/15 02:18:25;;;;;;;133.02;73.40;;;-1.90;99.90;;;;;;5000567;28;20018;-79
2022/01/15 02:23:41;;;;;;;149.85;77.93;;;-1.80;99.90;;;;;;4991484;28;20109;-79
2022/01/15 02:26:09;;;;;;;157.70;79.20;;;-1.80;99.90;;;;;;5000505;28;20865;-79
2022/01/15 02:28:40;;;;;;;144.65;74.60;;;-1.80;99.90;;;;;;5000401;28;20087;-80
2022/01/15 02:31:10;;;;;;;128.18;69.53;;;-1.80;99.90;;;;;;5000073;28;20541;-80
2022/01/15 02:33:37;;;;;;;144.23;78.20;;;-1.80;99.90;;;;;;4998993;28;20030;-79
2022/01/15 02:36:09;;;;;;;150.48;78.43;;;-1.80;99.90;;;;;;5010008;28;20029;-80
2022/01/15 02:38:36;;;;;;;145.02;77.85;;;-1.80;99.90;;;;;;5018543;28;20040;-80
2022/01/15 02:41:02;;;;;;;151.10;75.13;;;-1.80;99.90;;;;;;5020224;28;20030;-80
2022/01/15 02:43:32;;;;;;;141.38;78.75;;;-1.80;99.90;;;;;;5020945;28;20536;-80
2022/01/15 02:46:08;;;;;;;139.90;75.22;;;-1.80;99.90;;;;;;5020659;28;20045;-80
2022/01/15 02:48:36;;;;;;;123.05;63.80;;;-1.80;99.90;;;;;;5020013;28;20033;-80
2022/01/15 02:51:02;;;;;;;132.50;67.95;;;-1.90;99.90;;;;;;5019383;28;20030;-80
2022/01/15 02:53:28;;;;;;;122.30;66.82;;;-1.90;99.90;;;;;;5019719;28;20018;-79
2022/01/15 02:55:54;;;;;;;113.05;65.32;;;-1.90;99.90;;;;;;5019488;28;20037;-79
2022/01/15 02:58:22;;;;;;;122.20;66.28;;;-2.00;99.90;;;;;;5018168;28;20026;-79
2022/01/15 03:00:50;;;;;;;127.55;72.07;;;-2.00;99.90;;;;;;5019084;28;20052;-79
2022/01/15 03:03:16;;;;;;;143.13;76.45;;;-2.00;99.90;;;;;;5019625;28;20061;-79
2022/01/15 03:05:42;;;;;;;131.73;71.25;;;-2.00;99.90;;;;;;5019203;28;20025;-79
2022/01/15 03:08:08;;;;;;;142.20;74.35;;;-2.00;99.90;;;;;;5019410;28;20030;-79
2022/01/15 03:10:34;;;;;;;130.10;72.65;;;-2.00;99.90;;;;;;5005594;28;20047;-79
2022/01/15 03:13:01;;;;;;;126.00;67.95;;;-2.00;99.90;;;;;;4999531;28;20033;-79
2022/01/15 03:15:28;;;;;;;125.35;65.03;;;-2.00;99.90;;;;;;4998128;28;20019;-79
2022/01/15 03:17:54;;;;;;;129.55;69.07;;;-2.10;99.90;;;;;;4999489;28;20117;-79
2022/01/15 03:20:21;;;;;;;131.63;67.43;;;-2.00;99.90;;;;;;4999216;28;20081;-79
2022/01/15 03:22:47;;;;;;;132.63;69.78;;;-2.00;99.90;;;;;;4999604;28;20062;-79
2022/01/15 03:25:13;;;;;;;139.45;70.50;;;-2.00;99.90;;;;;;4999207;28;20022;-79
2022/01/15 03:27:40;;;;;;;125.20;68.70;;;-2.00;99.90;;;;;;4998240;28;20088;-79
2022/01/15 03:30:08;;;;;;;121.47;69.50;;;-2.00;99.90;;;;;;5000609;28;20023;-79
2022/01/15 03:32:34;;;;;;;135.77;71.20;;;-2.00;99.90;;;;;;5018692;28;20022;-79
2022/01/15 03:35:00;;;;;;;126.70;68.13;;;-2.10;99.90;;;;;;5014660;28;20027;-79
2022/01/15 03:37:26;;;;;;;125.82;71.18;;;-2.10;99.90;;;;;;5018853;28;20034;-79
2022/01/15 03:39:52;;;;;;;132.27;73.88;;;-2.10;99.90;;;;;;5017274;28;20375;-79
2022/01/15 03:42:17;;;;;;;132.48;70.35;;;-2.10;99.90;;;;;;5017099;28;20030;-79
2022/01/15 03:44:47;;;;;;;127.68;70.03;;;-2.10;99.90;;;;;;5017336;28;20522;-79
2022/01/15 03:47:14;;;;;;;120.97;67.97;;;-2.10;99.90;;;;;;5018473;28;20029;-79
2022/01/15 03:49:40;;;;;;;115.22;64.22;;;-2.10;99.90;;;;;;5017391;28;20041;-79
2022/01/15 03:52:08;;;;;;;119.35;65.50;;;-2.10;99.90;;;;;;5018619;28;20029;-79
2022/01/15 03:54:34;;;;;;;121.05;65.82;;;-2.10;99.90;;;;;;5018364;28;20018;-79
2022/01/15 03:57:01;;;;;;;117.93;64.68;;;-2.10;99.90;;;;;;5018754;28;20032;-79
2022/01/15 03:59:27;;;;;;;121.07;67.10;;;-2.20;99.90;;;;;;5018816;28;20022;-79
2022/01/15 04:01:53;;;;;;;126.15;67.35;;;-2.20;99.90;;;;;;5017698;28;20044;-79
2022/01/15 04:04:19;;;;;;;114.07;65.22;;;-2.20;99.90;;;;;;5017125;28;20105;-79
2022/01/15 04:06:45;;;;;;;119.28;68.82;;;-2.20;99.90;;;;;;5016977;28;20080;-79
2022/01/15 04:09:12;;;;;;;132.52;68.10;;;-2.20;99.90;;;;;;5000341;28;20046;-79
2022/01/15 04:11:39;;;;;;;120.50;69.68;;;-2.20;99.90;;;;;;5018108;28;20060;-79
2022/01/15 04:14:05;;;;;;;117.43;70.75;;;-2.20;99.90;;;;;;5018100;28;20018;-79
2022/01/15 04:16:31;;;;;;;120.28;71.05;;;-2.20;99.90;;;;;;5017906;28;20895;-78
2022/01/15 04:18:58;;;;;;;133.65;72.47;;;-2.30;99.90;;;;;;5014564;28;20093;-79
2022/01/15 04:21:25;;;;;;;128.23;69.60;;;-2.30;99.90;;;;;;4998542;28;20030;-78
2022/01/15 04:23:51;;;;;;;119.65;70.63;;;-2.30;99.90;;;;;;4998342;28;20077;-78
2022/01/15 04:26:22;;;;;;;124.32;68.13;;;-2.40;99.90;;;;;;4998330;28;20446;-79
2022/01/15 04:28:48;;;;;;;129.57;70.25;;;-2.30;99.90;;;;;;4997189;28;20018;-78
2022/01/15 04:31:13;;;;;;;120.35;70.15;;;-2.30;99.90;;;;;;4996516;28;20113;-78
2022/01/15 04:33:39;;;;;;;138.23;68.22;;;-2.40;99.90;;;;;;4998041;28;20019;-79
2022/01/15 04:36:06;;;;;;;116.38;64.18;;;-2.40;99.90;;;;;;5008696;28;20048;-79
2022/01/15 04:38:36;;;;;;;103.38;61.55;;;-2.30;99.90;;;;;;5017327;28;20022;-78
2022/01/15 04:41:02;;;;;;;101.20;60.45;;;-2.40;99.90;;;;;;5016784;28;20203;-78
2022/01/15 04:43:28;;;;;;;98.95;57.88;;;-2.50;99.90;;;;;;5016141;28;20057;-78
2022/01/15 04:45:54;;;;;;;103.78;59.28;;;-2.60;99.90;;;;;;5016075;28;20026;-78
2022/01/15 04:48:20;;;;;;;99.82;59.28;;;-2.60;99.90;;;;;;5016148;28;20049;-78
2022/01/15 04:50:46;;;;;;;104.45;62.42;;;-2.60;99.90;;;;;;5017597;28;20029;-78
2022/01/15 04:53:12;;;;;;;99.97;58.63;;;-2.60;99.90;;;;;;5000916;28;20033;-78
2022/01/15 04:55:38;;;;;;;91.85;54.88;;;-2.60;99.90;;;;;;4996591;28;20111;-78
2022/01/15 04:58:06;;;;;;;91.18;57.17;;;-2.70;99.90;;;;;;4997878;28;20019;-78
2022/01/15 05:00:32;;;;;;;101.88;60.67;;;-2.70;99.90;;;;;;4997660;28;20027;-78
2022/01/15 05:02:59;;;;;;;125.53;68.60;;;-2.70;99.90;;;;;;5014432;28;20033;-79
2022/01/15 05:05:26;;;;;;;112.05;65.63;;;-2.70;99.90;;;;;;5017584;28;20030;-78
2022/01/15 05:07:53;;;;;;;103.63;60.30;;;-2.70;99.90;;;;;;5017335;28;20506;-78
2022/01/15 05:10:21;;;;;;;100.32;60.55;;;-2.80;99.90;;;;;;5017244;28;20046;-79
2022/01/15 05:12:49;;;;;;;111.32;61.15;;;-2.80;99.90;;;;;;5017305;28;20018;-78
2022/01/15 05:15:17;;;;;;;122.70;65.38;;;-2.80;99.90;;;;;;5017638;28;20394;-79
2022/01/15 05:17:43;;;;;;;102.47;61.65;;;-2.80;99.90;;;;;;5017345;28;20022;-78
2022/01/15 05:20:10;;;;;;;106.00;60.63;;;-2.80;99.90;;;;;;5004456;28;20049;-79
2022/01/15 05:22:36;;;;;;;108.90;60.25;;;-2.80;99.90;;;;;;4997751;28;20121;-78
2022/01/15 05:25:04;;;;;;;84.00;53.47;;;-2.80;99.90;;;;;;4997674;28;20038;-78
2022/01/15 05:27:30;;;;;;;102.97;59.88;;;-2.80;99.90;;;;;;4997588;28;20090;-78
2022/01/15 05:29:56;;;;;;;75.78;46.75;;;-2.80;99.90;;;;;;4995490;28;20407;-78
2022/01/15 05:32:23;;;;;;;87.25;51.35;;;-2.80;99.90;;;;;;4996355;28;20105;-78
2022/01/15 05:34:50;;;;;;;98.18;56.63;;;-2.80;99.90;;;;;;4997634;28;20037;-78
2022/01/15 05:37:16;;;;;;;95.72;56.20;;;-2.80;99.90;;;;;;5017263;28;20371;-78
2022/01/15 05:39:42;;;;;;;90.57;51.60;;;-2.90;99.90;;;;;;5017025;28;20057;-78
2022/01/15 05:42:08;;;;;;;75.93;47.63;;;-2.80;99.90;;;;;;5016903;28;20037;-78
2022/01/15 05:44:34;;;;;;;73.90;47.83;;;-2.90;99.90;;;;;;5017183;28;20026;-78
2022/01/15 05:47:01;;;;;;;68.53;42.60;;;-2.90;99.90;;;;;;5017145;28;20033;-78
2022/01/15 05:49:29;;;;;;;75.10;42.97;;;-2.90;99.90;;;;;;5017039;28;20030;-78
2022/01/15 05:51:54;;;;;;;57.80;38.35;;;-2.90;99.90;;;;;;5020646;28;20018;-78
2022/01/15 05:54:20;;;;;;;55.53;35.35;;;-3.00;99.90;;;;;;5019264;28;20025;-78
2022/01/15 05:56:46;;;;;;;55.80;38.67;;;-3.00;99.90;;;;;;5020772;28;20021;-78
2022/01/15 05:59:12;;;;;;;59.85;40.08;;;-3.00;99.90;;;;;;5010469;28;20054;-78
2022/01/15 06:01:37;;;;;;;68.60;40.70;;;-3.00;99.90;;;;;;4998086;28;20038;-78
2022/01/15 06:04:04;;;;;;;90.28;49.22;;;-3.10;99.90;;;;;;4994830;28;20039;-78
2022/01/15 06:06:30;;;;;;;75.97;45.67;;;-3.00;99.90;;;;;;5000167;28;20019;-78
2022/01/15 06:08:56;;;;;;;81.15;50.72;;;-3.00;99.90;;;;;;4997776;28;20058;-77
2022/01/15 06:11:23;;;;;;;55.88;37.78;;;-3.00;99.90;;;;;;4999983;28;20026;-78
2022/01/15 06:13:50;;;;;;;64.88;38.97;;;-3.00;99.90;;;;;;5031728;28;20479;-78
2022/01/15 06:16:16;;;;;;;81.70;47.03;;;-3.10;99.90;;;;;;4999920;28;20022;-78
2022/01/15 06:18:41;;;;;;;59.53;39.33;;;-3.10;99.90;;;;;;4998165;28;20084;-78
2022/01/15 06:21:07;;;;;;;56.40;35.95;;;-3.20;99.90;;;;;;4996410;28;20019;-78
2022/01/15 06:23:34;;;;;;;61.42;38.97;;;-3.20;99.90;;;;;;4997354;28;20113;-78
2022/01/15 06:26:00;;;;;;;62.63;39.05;;;-3.20;99.90;;;;;;4998774;28;20018;-78
2022/01/15 06:28:26;;;;;;;56.22;40.67;;;-3.30;99.90;;;;;;4999908;28;20483;-78
2022/01/15 06:30:52;;;;;;;66.03;43.13;;;-3.30;99.90;;;;;;4995592;28;21085;-78
2022/01/15 06:33:18;;;;;;;94.90;55.78;;;-3.30;99.90;;;;;;5000077;28;20053;-78
2022/01/15 06:35:45;;;;;;;181.95;80.13;;;-3.20;99.90;;;;;;4999737;28;20395;-78
2022/01/15 06:38:11;;;;;;;73.43;44.60;;;-3.20;99.90;;;;;;4998148;28;20022;-78
2022/01/15 06:40:36;;;;;;;74.68;46.28;;;-3.30;99.90;;;;;;4995350;28;20034;-78
2022/01/15 06:43:03;;;;;;;70.75;44.95;;;-3.30;99.90;;;;;;4999641;28;20037;-78
2022/01/15 06:45:29;;;;;;;82.03;51.30;;;-3.30;99.90;;;;;;4999250;28;21569;-78
2022/01/15 06:47:55;;;;;;;67.93;44.63;;;-3.30;99.90;;;;;;4999727;28;20068;-78
2022/01/15 06:50:23;;;;;;;74.95;42.92;;;-3.30;99.90;;;;;;4999465;28;20014;-78
2022/01/15 06:52:49;;;;;;;62.35;40.28;;;-3.30;99.90;;;;;;4999651;28;20037;-78
2022/01/15 06:55:15;;;;;;;70.53;41.63;;;-3.30;99.90;;;;;;4998625;28;20018;-78
2022/01/15 06:57:41;;;;;;;65.25;44.08;;;-3.30;99.90;;;;;;4999682;28;20022;-78
2022/01/15 07:00:08;;;;;;;71.65;43.97;;;-3.30;99.90;;;;;;4998600;28;20495;-78
2022/01/15 07:02:34;;;;;;;68.53;42.03;;;-3.30;99.90;;;;;;4999137;28;20455;-78
2022/01/15 07:05:00;;;;;;;70.55;42.88;;;-3.30;99.90;;;;;;4999908;28;20112;-78
2022/01/15 07:07:26;;;;;;;75.47;43.67;;;-3.40;99.90;;;;;;4999600;28;20027;-78
2022/01/15 07:09:52;;;;;;;62.10;42.42;;;-3.40;99.90;;;;;;4999501;28;20058;-78
2022/01/15 07:12:18;;;;;;;61.50;40.75;;;-3.40;99.90;;;;;;4998322;28;20105;-77
2022/01/15 07:14:43;;;;;;;55.95;38.78;;;-3.40;99.90;;;;;;4999734;28;20106;-77
2022/01/15 07:17:10;;;;;;;58.72;39.80;;;-3.40;99.90;;;;;;4999264;28;20557;-77
2022/01/15 07:19:37;;;;;;;65.07;41.40;;;-3.40;99.90;;;;;;4998820;28;20046;-78
2022/01/15 07:22:03;;;;;;;61.75;42.00;;;-3.40;99.90;;;;;;4999350;28;20497;-78
2022/01/15 07:24:29;;;;;;;65.43;44.17;;;-3.40;99.90;;;;;;4998075;28;20022;-78
2022/01/15 07:26:55;;;;;;;72.50;43.85;;;-3.40;99.90;;;;;;4999284;28;20045;-80
2022/01/15 07:29:23;;;;;;;61.55;41.58;;;-3.40;99.90;;;;;;4998113;28;20403;-80
2022/01/15 07:31:49;;;;;;;66.03;44.00;;;-3.40;99.90;;;;;;4999117;28;20041;-78
2022/01/15 07:34:15;;;;;;;65.78;43.22;;;-3.40;99.90;;;;;;4999545;28;20022;-77
2022/01/15 07:36:41;;;;;;;68.78;44.03;;;-3.40;99.90;;;;;;5014443;28;20461;-78
2022/01/15 07:39:08;;;;;;;69.82;43.20;;;-3.40;99.90;;;;;;5017496;28;20106;-80
2022/01/15 07:41:35;;;;;;;66.20;44.42;;;-3.40;99.90;;;;;;5017122;28;20049;-78
2022/01/15 07:44:01;;;;;;;68.30;43.45;;;-3.40;99.90;;;;;;5017935;28;20405;-78
2022/01/15 07:46:26;;;;;;;68.72;45.22;;;-3.40;99.90;;;;;;5009439;28;20034;-78
2022/01/15 07:48:52;;;;;;;70.97;45.05;;;-3.30;99.90;;;;;;4999477;28;20018;-78
2022/01/15 07:51:18;;;;;;;71.03;43.42;;;-3.30;99.90;;;;;;4999175;28;20064;-80
2022/01/15 07:53:44;;;;;;;73.65;45.80;;;-3.30;99.90;;;;;;4998876;28;20014;-80
2022/01/15 07:56:10;;;;;;;66.90;42.20;;;-3.20;99.90;;;;;;4998832;28;20054;-79
2022/01/15 07:58:36;;;;;;;71.97;44.08;;;-3.20;99.90;;;;;;4998761;28;20505;-79
2022/01/15 08:01:02;;;;;;;72.60;46.22;;;-3.10;99.90;;;;;;4997155;28;20118;-79
2022/01/15 08:03:27;;;;;;;75.18;46.13;;;-3.10;99.90;;;;;;4997503;28;20482;-79
2022/01/15 08:05:53;;;;;;;76.70;47.15;;;-3.00;99.90;;;;;;4998544;28;20026;-79
2022/01/15 08:08:19;;;;;;;82.80;50.63;;;-2.90;99.90;;;;;;4997200;28;20026;-80
2022/01/15 08:10:45;;;;;;;88.72;56.20;;;-2.90;99.90;;;;;;4997943;28;20107;-79
2022/01/15 08:13:11;;;;;;;75.05;48.92;;;-2.80;99.90;;;;;;4997235;28;20084;-79
2022/01/15 08:15:37;;;;;;;67.95;44.00;;;-2.80;99.90;;;;;;4996858;28;20022;-79
2022/01/15 08:18:03;;;;;;;68.93;43.63;;;-2.70;99.90;;;;;;4990629;28;20102;-79
2022/01/15 08:20:29;;;;;;;74.78;45.53;;;-2.70;99.90;;;;;;4981090;28;20022;-79
2022/01/15 08:22:55;;;;;;;75.47;48.20;;;-2.70;99.90;;;;;;4987596;28;20042;-79
2022/01/15 08:25:23;;;;;;;83.85;51.47;;;-2.60;99.90;;;;;;4996683;28;20037;-79
2022/01/15 08:27:49;;;;;;;95.55;55.08;;;-2.60;99.90;;;;;;4997770;28;20096;-79
2022/01/15 08:30:16;;;;;;;86.63;52.35;;;-2.60;99.90;;;;;;4996485;28;20495;-79
2022/01/15 08:32:42;;;;;;;78.75;50.80;;;-2.50;99.90;;;;;;4996164;28;20113;-79
2022/01/15 08:35:09;;;;;;;74.95;48.95;;;-2.50;99.90;;;;;;4996398;28;20376;-79
2022/01/15 08:37:37;;;;;;;79.13;51.40;;;-2.50;99.90;;;;;;4996322;28;20478;-79
2022/01/15 08:40:04;;;;;;;78.50;50.53;;;-2.40;99.90;;;;;;4994132;28;20049;-79
2022/01/15 08:42:30;;;;;;;74.65;48.70;;;-2.40;99.90;;;;;;4991920;28;20054;-79
2022/01/15 08:44:56;;;;;;;71.57;46.83;;;-2.30;99.90;;;;;;4993169;28;20038;-79
2022/01/15 08:47:22;;;;;;;75.40;51.50;;;-2.30;99.90;;;;;;4996236;28;20030;-79
2022/01/15 08:49:48;;;;;;;75.80;47.70;;;-2.20;99.90;;;;;;5000156;28;20096;-79
2022/01/15 08:52:14;;;;;;;77.40;47.92;;;-2.20;99.90;;;;;;4999314;28;20022;-79
2022/01/15 08:54:39;;;;;;;80.28;50.30;;;-2.10;99.90;;;;;;5000103;28;20077;-79
2022/01/15 08:57:05;;;;;;;81.07;47.53;;;-2.10;99.90;;;;;;4997698;28;20022;-79
2022/01/15 08:59:31;;;;;;;74.13;47.92;;;-2.00;99.90;;;;;;5000579;28;20034;-80
2022/01/15 09:01:59;;;;;;;78.35;48.22;;;-1.90;99.90;;;;;;4996550;28;20105;-80
2022/01/15 09:04:25;;;;;;;78.22;47.55;;;-1.80;99.90;;;;;;4997390;28;20025;-79
2022/01/15 09:06:51;;;;;;;76.03;50.60;;;-1.70;99.90;;;;;;4996118;28;20483;-78
2022/01/15 09:09:17;;;;;;;75.72;49.08;;;-1.70;99.90;;;;;;4995674;28;20046;-78
2022/01/15 09:11:45;;;;;;;79.78;50.78;;;-1.70;99.90;;;;;;4997084;28;20029;-77
2022/01/15 09:14:11;;;;;;;80.57;51.08;;;-1.60;99.90;;;;;;4996506;28;20027;-77
2022/01/15 09:16:38;;;;;;;77.57;51.33;;;-1.50;99.90;;;;;;4995865;28;20023;-77
2022/01/15 09:19:04;;;;;;;73.32;49.00;;;-1.40;99.90;;;;;;4997405;28;20029;-77
2022/01/15 09:21:30;;;;;;;74.63;50.25;;;-1.30;99.90;;;;;;4996358;28;20026;-78
2022/01/15 09:23:55;;;;;;;87.13;53.75;;;-1.30;99.90;;;;;;4996519;28;20034;-78
2022/01/15 09:26:34;;;;;;;89.95;58.03;;;-1.20;99.90;;;;;;5001407;28;20053;-78
2022/01/15 09:31:55;;;;;;;99.05;61.58;;;-1.00;99.90;;;;;;5033871;28;20126;-78
2022/01/15 09:34:21;;;;;;;96.57;61.20;;;-0.90;99.90;;;;;;5001547;28;20026;-78
2022/01/15 09:36:46;;;;;;;94.00;62.58;;;-0.90;99.90;;;;;;5009723;28;20045;-78
2022/01/15 09:39:12;;;;;;;105.45;68.45;;;-0.80;99.90;;;;;;5000086;28;20026;-78
2022/01/15 09:41:43;;;;;;;95.95;65.35;;;-0.70;99.90;;;;;;4986206;28;20026;-78
2022/01/15 09:44:09;;;;;;;111.47;67.38;;;-0.60;99.90;;;;;;4993664;28;20015;-78
2022/01/15 09:46:36;;;;;;;99.78;64.63;;;-0.50;99.90;;;;;;4995451;28;20023;-77
2022/01/15 09:49:03;;;;;;;113.65;68.45;;;-0.40;99.90;;;;;;5001023;28;20023;-78
2022/01/15 09:51:30;;;;;;;108.25;69.70;;;-0.40;99.90;;;;;;4999211;28;20112;-78
2022/01/15 09:53:58;;;;;;;111.53;70.72;;;-0.30;99.90;;;;;;4992864;28;20499;-78
2022/01/15 09:56:23;;;;;;;117.28;78.10;;;-0.20;99.90;;;;;;4990127;28;20027;-78
2022/01/15 09:58:49;;;;;;;117.70;76.22;;;-0.20;99.90;;;;;;4998281;28;20029;-78
2022/01/15 10:01:15;;;;;;;112.03;69.78;;;-0.10;99.90;;;;;;4994706;28;20654;-78
2022/01/15 10:03:40;;;;;;;108.30;69.05;;;0.00;99.90;;;;;;4994907;28;20109;-77
2022/01/15 10:06:06;;;;;;;113.97;73.15;;;0.10;99.90;;;;;;4999957;28;20030;-77
2022/01/15 10:08:32;;;;;;;102.40;65.40;;;0.20;99.90;;;;;;4999887;28;20019;-77
2022/01/15 10:10:59;;;;;;;107.45;70.47;;;0.20;99.90;;;;;;4994778;28;20121;-77
2022/01/15 10:13:30;;;;;;;99.88;65.05;;;0.30;99.90;;;;;;4996117;28;20118;-78
2022/01/15 10:15:55;;;;;;;;;;;0.30;99.90;;;;;;4999738;28;20061;-79
2022/01/15 10:18:30;;;;;;;83.60;59.65;;;0.40;99.90;;;;;;4999600;28;20317;-78
2022/01/15 10:21:11;;;;;;;95.45;59.42;;;0.50;99.90;;;;;;4998623;28;20017;-79
2022/01/15 10:23:54;;;;;;;90.85;59.50;;;0.60;99.90;;;;;;5031393;28;20116;-79
2022/01/15 10:26:25;;;;;;;102.53;63.78;;;0.60;99.90;;;;;;4999864;28;20030;-80
2022/01/15 10:29:02;;;;;;;92.78;58.60;;;0.70;99.90;;;;;;4999197;28;20034;-79
2022/01/15 10:31:33;;;;;;;105.65;65.40;;;0.80;99.90;;;;;;4997451;28;20039;-79
2022/01/15 10:34:19;;;;;;;89.90;58.50;;;0.90;99.90;;;;;;4999572;28;20014;-79
2022/01/15 10:36:45;;;;;;;92.60;57.55;;;1.00;99.90;;;;;;4997743;28;20033;-79
2022/01/15 10:39:17;;;;;;;92.15;55.33;;;1.10;99.90;;;;;;5020990;28;20022;-79
2022/01/15 10:41:43;;;;;;;78.88;54.17;;;1.20;99.90;;;;;;4980005;28;20494;-79
2022/01/15 10:44:29;;;;;;;78.18;51.13;;;1.20;99.90;;;;;;4995589;28;20019;-79
2022/01/15 10:47:10;;;;;;;87.60;57.95;;;1.30;99.90;;;;;;4994676;28;20089;-79
2022/01/15 10:49:37;;;;;;;81.07;53.67;;;1.40;99.90;;;;;;4983939;28;20042;-79
2022/01/15 10:52:22;;;;;;;472.42;224.60;;;1.50;99.90;;;;;;4998023;28;20035;-79
2022/01/15 10:55:00;;;;;;;350.15;137.57;;;1.50;99.90;;;;;;4998300;28;20029;-79
2022/01/15 10:57:53;;;;;;;376.02;133.35;;;1.60;99.90;;;;;;4999015;28;20101;-79
2022/01/15 11:00:27;;;;;;;179.65;80.35;;;1.70;99.90;;;;;;4998433;28;20157;-79
2022/01/15 11:02:57;;;;;;;105.07;58.28;;;1.80;99.90;;;;;;4999121;28;20030;-79
2022/01/15 11:05:28;;;;;;;461.73;209.32;;;1.80;99.90;;;;;;4995677;28;20029;-79
2022/01/15 11:08:19;;;;;;;330.65;134.18;;;1.90;99.90;;;;;;4995484;28;20077;-79
2022/01/15 11:10:53;;;;;;;177.15;87.28;;;2.00;99.90;;;;;;4997122;28;20038;-76
2022/01/15 11:13:39;;;;;;;187.68;89.63;;;2.10;99.90;;;;;;4997131;28;20391;-76
2022/01/15 11:16:16;;;;;;;198.52;95.72;;;2.20;99.90;;;;;;4996280;28;20026;-77
2022/01/15 11:18:44;;;;;;;193.55;94.10;;;2.30;99.90;;;;;;4996640;28;20081;-76
2022/01/15 11:21:15;;;;;;;198.07;94.82;;;2.40;99.90;;;;;;4999257;28;20026;-76
2022/01/15 11:23:43;;;;;;;157.43;76.65;;;2.50;99.90;;;;;;4994509;28;20030;-76
2022/01/15 11:26:24;;;;;;;342.20;144.98;;;2.60;99.90;;;;;;4998183;28;20080;-77
2022/01/15 11:28:51;;;;;;;59.25;39.97;;;2.70;99.90;;;;;;4997989;28;20407;-77
2022/01/15 11:31:22;;;;;;;246.02;101.63;;;2.80;99.90;;;;;;4999246;28;20076;-76
2022/01/15 11:33:54;;;;;;;47.38;33.45;;;2.90;99.90;;;;;;4999152;28;20049;-77
2022/01/15 11:36:38;;;;;;;72.00;40.00;;;3.00;99.90;;;;;;5011721;28;20024;-77
2022/01/15 11:39:12;;;;;;;268.63;109.15;;;3.10;99.90;;;;;;5017549;28;20117;-77
2022/01/15 11:41:42;;;;;;;55.42;33.75;;;3.10;99.90;;;;;;5018708;28;20018;-77
2022/01/15 11:44:13;;;;;;;69.82;35.00;;;3.20;99.90;;;;;;5017552;28;20124;-77
2022/01/15 11:46:42;;;;;;;190.93;82.03;;;3.30;99.90;;;;;;5018347;28;20037;-77
2022/01/15 11:49:23;;;;;;;86.07;45.17;;;3.50;99.90;;;;;;5017966;28;20501;-77
2022/01/15 11:51:54;;;;;;;53.63;29.50;;;3.60;99.90;;;;;;5017223;28;20022;-77
2022/01/15 11:54:20;;;;;;;;;;;3.70;99.90;;;;;;5019008;28;20026;-77
2022/01/15 11:56:47;;;;;;;31.25;20.38;;;3.70;99.90;;;;;;5018630;28;19956;-77
2022/01/15 11:59:30;;;;;;;28.48;18.98;;;3.80;99.90;;;;;;5017216;28;20029;-77
2022/01/15 12:02:02;;;;;;;65.82;37.33;;;3.90;99.90;;;;;;5000321;28;20042;-77
2022/01/15 12:04:38;;;;;;;408.52;176.70;;;4.00;99.90;;;;;;4998474;28;20023;-77
2022/01/15 12:07:06;;;;;;;120.10;56.05;;;4.00;99.90;;;;;;4998550;28;20034;-76
2022/01/15 12:09:48;;;;;;;51.15;28.08;;;4.10;99.90;;;;;;5094859;28;20116;-77
2022/01/15 12:12:40;;;;;;;37.58;23.25;;;4.20;99.90;;;;;;5093302;28;20050;-77
2022/01/15 12:15:09;;;;;;;235.10;98.20;;;4.30;99.90;;;;;;5094263;28;20457;-77
2022/01/15 12:17:39;;;;;;;85.67;42.97;;;4.30;99.90;;;;;;5094738;28;20020;-77
2022/01/15 12:20:28;;;;;;;30.17;18.15;;;4.40;99.90;;;;;;5080573;28;20024;-76
2022/01/15 12:22:56;;;;;;;71.00;34.33;;;4.50;99.90;;;;;;5074210;28;20047;-77
2022/01/15 12:25:22;;;;;;;100.28;45.50;;;4.60;99.90;;;;;;5074596;28;20025;-76
2022/01/15 12:27:57;;;;;;;56.08;27.90;;;4.60;99.90;;;;;;5074776;28;20024;-76
2022/01/15 12:30:27;;;;;;;57.55;30.75;;;4.60;99.90;;;;;;5073213;28;20054;-77
2022/01/15 12:32:56;;;;;;;195.00;91.90;;;4.70;99.90;;;;;;5074823;28;20404;-77
2022/01/15 12:35:28;;;;;;;135.32;62.78;;;4.80;99.90;;;;;;5073630;28;20023;-76
2022/01/15 12:38:10;;;;;;;31.88;19.90;;;4.80;99.90;;;;;;5075125;28;20025;-77
2022/01/15 12:40:39;;;;;;;18.75;11.15;;;4.90;99.90;;;;;;5073188;28;20485;-77
2022/01/15 12:43:12;;;;;;;10.75;8.20;;;5.20;99.90;;;;;;5089264;28;20021;-77
2022/01/15 12:45:39;;;;;;;28.40;13.45;;;5.30;99.90;;;;;;5092898;28;20111;-76
2022/01/15 12:48:09;;;;;;;34.08;16.95;;;5.70;99.90;;;;;;5093975;28;20024;-77
2022/01/15 12:51:01;;;;;;;32.70;18.60;;;6.00;99.90;;;;;;5094118;28;20054;-76